sensor_id;sensor_type;location;lat;lon;timestamp;P1;durP1;ratioP1;P2;durP2;ratioP2
24559;SDS011;12727;49.934;8.656;2023-05-10T00:01:24;1.27;;;0.73;;
24559;SDS011;12727;49.934;8.656;2023-05-10T00:03:50;2.05;;;0.73;;
24559;SDS011;12727;49.934;8.656;2023-05-10T00:06:16;1.88;;;0.88;;
24559;SDS011;12727;49.934;8.656;2023-05-10T00:08:41;1.55;;;0.70;;
24559;SDS011;12727;49.934;8.656;2023-05-10T00:11:07;2.22;;;1.20;;
24559;SDS011;12727;49.934;8.656;2023-05-10T00:13:32;2.25;;;1.00;;
24559;SDS011;12727;49.934;8.656;2023-05-10T00:15:58;2.70;;;1.00;;
24559;SDS011;12727;49.934;8.656;2023-05-10T00:18:24;1.60;;;1.10;;
24559;SDS011;12727;49.934;8.656;2023-05-10T00:20:50;2.30;;;1.02;;
24559;SDS011;12727;49.934;8.656;2023-05-10T00:23:15;1.08;;;0.90;;
24559;SDS011;12727;49.934;8.656;2023-05-10T00:25:41;1.20;;;0.90;;
24559;SDS011;12727;49.934;8.656;2023-05-10T00:28:06;2.10;;;1.20;;
24559;SDS011;12727;49.934;8.656;2023-05-10T00:30:32;1.00;;;0.90;;
24559;SDS011;12727;49.934;8.656;2023-05-10T00:32:57;1.25;;;0.98;;
24559;SDS011;12727;49.934;8.656;2023-05-10T00:35:23;1.05;;;0.90;;
24559;SDS011;12727;49.934;8.656;2023-05-10T00:37:49;1.38;;;1.00;;
24559;SDS011;12727;49.934;8.656;2023-05-10T00:40:14;2.25;;;0.73;;
24559;SDS011;12727;49.934;8.656;2023-05-10T00:42:43;1.63;;;0.85;;
24559;SDS011;12727;49.934;8.656;2023-05-10T00:45:08;3.90;;;1.00;;
24559;SDS011;12727;49.934;8.656;2023-05-10T00:47:34;4.85;;;0.95;;
24559;SDS011;12727;49.934;8.656;2023-05-10T00:50:00;1.38;;;1.00;;
24559;SDS011;12727;49.934;8.656;2023-05-10T00:52:29;0.88;;;0.70;;
24559;SDS011;12727;49.934;8.656;2023-05-10T00:54:55;1.13;;;0.70;;
24559;SDS011;12727;49.934;8.656;2023-05-10T00:57:21;1.08;;;0.80;;
24559;SDS011;12727;49.934;8.656;2023-05-10T00:59:47;0.95;;;0.77;;
24559;SDS011;12727;49.934;8.656;2023-05-10T01:02:13;2.03;;;0.90;;
24559;SDS011;12727;49.934;8.656;2023-05-10T01:04:39;1.00;;;0.65;;
24559;SDS011;12727;49.934;8.656;2023-05-10T01:07:05;1.58;;;1.00;;
24559;SDS011;12727;49.934;8.656;2023-05-10T01:09:31;0.90;;;0.80;;
24559;SDS011;12727;49.934;8.656;2023-05-10T01:11:57;2.08;;;1.20;;
24559;SDS011;12727;49.934;8.656;2023-05-10T01:14:24;2.30;;;1.00;;
24559;SDS011;12727;49.934;8.656;2023-05-10T01:16:50;1.92;;;1.20;;
24559;SDS011;12727;49.934;8.656;2023-05-10T01:32:50;3.70;;;1.50;;
24559;SDS011;12727;49.934;8.656;2023-05-10T01:35:22;2.10;;;1.50;;
24559;SDS011;12727;49.934;8.656;2023-05-10T01:40:56;1.67;;;1.33;;
24559;SDS011;12727;49.934;8.656;2023-05-10T01:43:33;2.28;;;1.40;;
24559;SDS011;12727;49.934;8.656;2023-05-10T01:46:09;3.92;;;1.48;;
24559;SDS011;12727;49.934;8.656;2023-05-10T01:48:54;3.10;;;1.35;;
24559;SDS011;12727;49.934;8.656;2023-05-10T01:51:23;1.92;;;1.30;;
24559;SDS011;12727;49.934;8.656;2023-05-10T01:53:51;3.38;;;1.30;;
24559;SDS011;12727;49.934;8.656;2023-05-10T01:56:24;1.40;;;1.10;;
24559;SDS011;12727;49.934;8.656;2023-05-10T01:58:51;1.85;;;1.30;;
24559;SDS011;12727;49.934;8.656;2023-05-10T02:01:17;2.35;;;1.80;;
24559;SDS011;12727;49.934;8.656;2023-05-10T02:03:46;3.22;;;1.80;;
24559;SDS011;12727;49.934;8.656;2023-05-10T02:06:14;1.92;;;1.40;;
24559;SDS011;12727;49.934;8.656;2023-05-10T02:08:43;2.72;;;1.63;;
24559;SDS011;12727;49.934;8.656;2023-05-10T02:11:12;2.28;;;1.70;;
24559;SDS011;12727;49.934;8.656;2023-05-10T02:13:38;4.32;;;1.25;;
24559;SDS011;12727;49.934;8.656;2023-05-10T02:16:05;1.60;;;1.30;;
24559;SDS011;12727;49.934;8.656;2023-05-10T02:18:32;2.50;;;1.25;;
24559;SDS011;12727;49.934;8.656;2023-05-10T02:21:00;2.25;;;1.50;;
24559;SDS011;12727;49.934;8.656;2023-05-10T02:23:27;3.97;;;1.48;;
24559;SDS011;12727;49.934;8.656;2023-05-10T02:25:54;3.22;;;1.55;;
24559;SDS011;12727;49.934;8.656;2023-05-10T02:28:21;2.78;;;1.70;;
24559;SDS011;12727;49.934;8.656;2023-05-10T02:30:49;2.95;;;2.17;;
24559;SDS011;12727;49.934;8.656;2023-05-10T02:33:16;3.67;;;1.73;;
24559;SDS011;12727;49.934;8.656;2023-05-10T02:35:43;2.13;;;1.70;;
24559;SDS011;12727;49.934;8.656;2023-05-10T02:38:09;3.92;;;2.13;;
24559;SDS011;12727;49.934;8.656;2023-05-10T02:40:36;1.63;;;1.33;;
24559;SDS011;12727;49.934;8.656;2023-05-10T02:43:03;3.20;;;1.52;;
24559;SDS011;12727;49.934;8.656;2023-05-10T02:45:31;3.17;;;1.60;;
24559;SDS011;12727;49.934;8.656;2023-05-10T02:47:58;2.42;;;1.50;;
24559;SDS011;12727;49.934;8.656;2023-05-10T02:50:25;1.60;;;1.50;;
24559;SDS011;12727;49.934;8.656;2023-05-10T02:52:54;3.67;;;1.95;;
24559;SDS011;12727;49.934;8.656;2023-05-10T02:55:25;4.10;;;1.95;;
24559;SDS011;12727;49.934;8.656;2023-05-10T02:57:58;8.00;;;2.00;;
24559;SDS011;12727;49.934;8.656;2023-05-10T03:00:25;2.28;;;1.85;;
24559;SDS011;12727;49.934;8.656;2023-05-10T03:02:51;2.03;;;1.60;;
24559;SDS011;12727;49.934;8.656;2023-05-10T03:05:17;2.85;;;1.35;;
24559;SDS011;12727;49.934;8.656;2023-05-10T03:07:43;2.15;;;1.13;;
24559;SDS011;12727;49.934;8.656;2023-05-10T03:10:09;2.13;;;1.30;;
24559;SDS011;12727;49.934;8.656;2023-05-10T03:12:46;2.13;;;1.52;;
24559;SDS011;12727;49.934;8.656;2023-05-10T03:15:18;2.65;;;1.92;;
24559;SDS011;12727;49.934;8.656;2023-05-10T03:18:29;5.43;;;2.42;;
24559;SDS011;12727;49.934;8.656;2023-05-10T03:20:48;6.72;;;3.00;;
24559;SDS011;12727;49.934;8.656;2023-05-10T03:23:35;2.53;;;2.10;;
24559;SDS011;12727;49.934;8.656;2023-05-10T03:26:05;4.53;;;2.22;;
24559;SDS011;12727;49.934;8.656;2023-05-10T03:28:33;4.07;;;2.60;;
24559;SDS011;12727;49.934;8.656;2023-05-10T03:31:00;2.95;;;2.53;;
24559;SDS011;12727;49.934;8.656;2023-05-10T03:33:27;3.35;;;2.70;;
24559;SDS011;12727;49.934;8.656;2023-05-10T03:35:53;2.88;;;2.55;;
24559;SDS011;12727;49.934;8.656;2023-05-10T03:38:18;3.15;;;2.47;;
24559;SDS011;12727;49.934;8.656;2023-05-10T03:40:44;5.43;;;2.63;;
24559;SDS011;12727;49.934;8.656;2023-05-10T03:43:09;6.45;;;2.95;;
24559;SDS011;12727;49.934;8.656;2023-05-10T03:45:35;3.65;;;2.70;;
24559;SDS011;12727;49.934;8.656;2023-05-10T03:48:00;4.13;;;2.83;;
24559;SDS011;12727;49.934;8.656;2023-05-10T03:50:26;4.45;;;2.90;;
24559;SDS011;12727;49.934;8.656;2023-05-10T03:52:51;3.45;;;3.00;;
24559;SDS011;12727;49.934;8.656;2023-05-10T03:55:17;3.53;;;3.10;;
24559;SDS011;12727;49.934;8.656;2023-05-10T03:57:43;4.32;;;3.45;;
24559;SDS011;12727;49.934;8.656;2023-05-10T04:00:08;6.53;;;3.45;;
24559;SDS011;12727;49.934;8.656;2023-05-10T04:02:35;4.10;;;3.58;;
24559;SDS011;12727;49.934;8.656;2023-05-10T04:05:00;5.10;;;3.40;;
24559;SDS011;12727;49.934;8.656;2023-05-10T04:07:26;4.43;;;3.78;;
24559;SDS011;12727;49.934;8.656;2023-05-10T04:09:52;4.55;;;4.10;;
24559;SDS011;12727;49.934;8.656;2023-05-10T04:12:17;4.80;;;3.72;;
24559;SDS011;12727;49.934;8.656;2023-05-10T04:14:43;6.75;;;4.35;;
24559;SDS011;12727;49.934;8.656;2023-05-10T04:17:09;7.25;;;4.45;;
24559;SDS011;12727;49.934;8.656;2023-05-10T04:19:35;6.55;;;4.80;;
24559;SDS011;12727;49.934;8.656;2023-05-10T04:22:01;5.63;;;4.63;;
24559;SDS011;12727;49.934;8.656;2023-05-10T04:24:27;12.23;;;4.60;;
24559;SDS011;12727;49.934;8.656;2023-05-10T04:26:53;6.00;;;4.47;;
24559;SDS011;12727;49.934;8.656;2023-05-10T04:29:19;5.55;;;4.80;;
24559;SDS011;12727;49.934;8.656;2023-05-10T04:31:45;5.60;;;4.70;;
24559;SDS011;12727;49.934;8.656;2023-05-10T04:34:11;6.80;;;4.88;;
24559;SDS011;12727;49.934;8.656;2023-05-10T04:36:36;6.53;;;5.07;;
24559;SDS011;12727;49.934;8.656;2023-05-10T04:39:02;6.20;;;4.40;;
24559;SDS011;12727;49.934;8.656;2023-05-10T04:41:28;5.43;;;4.90;;
24559;SDS011;12727;49.934;8.656;2023-05-10T04:43:54;12.25;;;5.53;;
24559;SDS011;12727;49.934;8.656;2023-05-10T04:46:20;5.40;;;4.47;;
24559;SDS011;12727;49.934;8.656;2023-05-10T04:48:46;4.90;;;4.07;;
24559;SDS011;12727;49.934;8.656;2023-05-10T04:51:11;6.25;;;4.20;;
24559;SDS011;12727;49.934;8.656;2023-05-10T04:53:37;5.50;;;3.83;;
24559;SDS011;12727;49.934;8.656;2023-05-10T04:56:03;5.55;;;3.92;;
24559;SDS011;12727;49.934;8.656;2023-05-10T04:58:29;5.50;;;4.38;;
24559;SDS011;12727;49.934;8.656;2023-05-10T05:00:54;6.25;;;4.35;;
24559;SDS011;12727;49.934;8.656;2023-05-10T05:03:20;5.88;;;4.68;;
24559;SDS011;12727;49.934;8.656;2023-05-10T05:05:47;5.60;;;4.40;;
24559;SDS011;12727;49.934;8.656;2023-05-10T05:08:12;6.35;;;4.25;;
24559;SDS011;12727;49.934;8.656;2023-05-10T05:10:38;5.82;;;4.63;;
24559;SDS011;12727;49.934;8.656;2023-05-10T05:13:03;9.15;;;5.80;;
24559;SDS011;12727;49.934;8.656;2023-05-10T05:15:29;9.98;;;5.50;;
24559;SDS011;12727;49.934;8.656;2023-05-10T05:17:55;6.45;;;5.25;;
24559;SDS011;12727;49.934;8.656;2023-05-10T05:20:21;6.95;;;4.85;;
24559;SDS011;12727;49.934;8.656;2023-05-10T05:22:47;9.60;;;4.82;;
24559;SDS011;12727;49.934;8.656;2023-05-10T05:25:12;6.40;;;4.68;;
24559;SDS011;12727;49.934;8.656;2023-05-10T05:27:38;6.68;;;4.35;;
24559;SDS011;12727;49.934;8.656;2023-05-10T05:30:03;7.35;;;4.70;;
24559;SDS011;12727;49.934;8.656;2023-05-10T05:32:29;5.22;;;4.35;;
24559;SDS011;12727;49.934;8.656;2023-05-10T05:34:55;6.65;;;4.13;;
24559;SDS011;12727;49.934;8.656;2023-05-10T05:37:21;6.60;;;4.78;;
24559;SDS011;12727;49.934;8.656;2023-05-10T05:39:47;4.93;;;3.80;;
24559;SDS011;12727;49.934;8.656;2023-05-10T05:42:13;5.20;;;4.00;;
24559;SDS011;12727;49.934;8.656;2023-05-10T05:44:41;7.38;;;3.78;;
24559;SDS011;12727;49.934;8.656;2023-05-10T05:47:07;5.25;;;3.65;;
24559;SDS011;12727;49.934;8.656;2023-05-10T05:49:32;4.80;;;3.60;;
24559;SDS011;12727;49.934;8.656;2023-05-10T05:51:58;5.35;;;4.15;;
24559;SDS011;12727;49.934;8.656;2023-05-10T05:54:25;5.68;;;4.03;;
24559;SDS011;12727;49.934;8.656;2023-05-10T05:56:53;5.95;;;3.78;;
24559;SDS011;12727;49.934;8.656;2023-05-10T05:59:20;4.63;;;3.70;;
24559;SDS011;12727;49.934;8.656;2023-05-10T06:01:45;3.78;;;3.20;;
24559;SDS011;12727;49.934;8.656;2023-05-10T06:04:11;6.70;;;3.30;;
24559;SDS011;12727;49.934;8.656;2023-05-10T06:06:37;3.88;;;3.33;;
24559;SDS011;12727;49.934;8.656;2023-05-10T06:09:03;2.97;;;2.70;;
24559;SDS011;12727;49.934;8.656;2023-05-10T06:11:28;5.45;;;3.05;;
24559;SDS011;12727;49.934;8.656;2023-05-10T06:13:55;3.58;;;3.13;;
24559;SDS011;12727;49.934;8.656;2023-05-10T06:16:21;5.35;;;3.13;;
24559;SDS011;12727;49.934;8.656;2023-05-10T06:18:46;4.13;;;2.90;;
24559;SDS011;12727;49.934;8.656;2023-05-10T06:21:12;4.50;;;2.83;;
24559;SDS011;12727;49.934;8.656;2023-05-10T06:23:37;4.70;;;3.30;;
24559;SDS011;12727;49.934;8.656;2023-05-10T06:26:03;4.65;;;2.88;;
24559;SDS011;12727;49.934;8.656;2023-05-10T06:28:28;4.78;;;2.65;;
24559;SDS011;12727;49.934;8.656;2023-05-10T06:30:56;4.93;;;2.80;;
24559;SDS011;12727;49.934;8.656;2023-05-10T06:33:21;5.03;;;3.10;;
24559;SDS011;12727;49.934;8.656;2023-05-10T06:35:47;5.38;;;3.05;;
24559;SDS011;12727;49.934;8.656;2023-05-10T06:38:12;4.80;;;3.25;;
24559;SDS011;12727;49.934;8.656;2023-05-10T06:40:40;4.70;;;2.95;;
24559;SDS011;12727;49.934;8.656;2023-05-10T06:43:07;3.85;;;2.70;;
24559;SDS011;12727;49.934;8.656;2023-05-10T06:45:32;3.38;;;2.72;;
24559;SDS011;12727;49.934;8.656;2023-05-10T06:47:58;3.63;;;2.72;;
24559;SDS011;12727;49.934;8.656;2023-05-10T06:50:23;5.07;;;2.83;;
24559;SDS011;12727;49.934;8.656;2023-05-10T06:52:49;5.03;;;4.00;;
24559;SDS011;12727;49.934;8.656;2023-05-10T06:55:15;4.30;;;3.20;;
24559;SDS011;12727;49.934;8.656;2023-05-10T06:57:40;4.43;;;3.20;;
24559;SDS011;12727;49.934;8.656;2023-05-10T07:00:06;4.80;;;3.63;;
24559;SDS011;12727;49.934;8.656;2023-05-10T07:02:32;6.78;;;3.40;;
24559;SDS011;12727;49.934;8.656;2023-05-10T07:04:58;4.57;;;3.75;;
24559;SDS011;12727;49.934;8.656;2023-05-10T07:07:23;6.88;;;3.47;;
24559;SDS011;12727;49.934;8.656;2023-05-10T07:09:49;5.50;;;4.25;;
24559;SDS011;12727;49.934;8.656;2023-05-10T07:12:16;4.65;;;4.25;;
24559;SDS011;12727;49.934;8.656;2023-05-10T07:14:42;4.28;;;3.55;;
24559;SDS011;12727;49.934;8.656;2023-05-10T07:17:08;10.27;;;5.60;;
24559;SDS011;12727;49.934;8.656;2023-05-10T07:19:34;7.38;;;4.88;;
24559;SDS011;12727;49.934;8.656;2023-05-10T07:22:00;7.07;;;4.40;;
24559;SDS011;12727;49.934;8.656;2023-05-10T07:24:25;6.68;;;3.78;;
24559;SDS011;12727;49.934;8.656;2023-05-10T07:26:51;6.35;;;5.28;;
24559;SDS011;12727;49.934;8.656;2023-05-10T07:29:16;5.45;;;4.45;;
24559;SDS011;12727;49.934;8.656;2023-05-10T07:31:42;7.50;;;5.18;;
24559;SDS011;12727;49.934;8.656;2023-05-10T07:34:08;4.80;;;4.13;;
24559;SDS011;12727;49.934;8.656;2023-05-10T07:36:34;6.72;;;4.25;;
24559;SDS011;12727;49.934;8.656;2023-05-10T07:39:00;6.35;;;4.45;;
24559;SDS011;12727;49.934;8.656;2023-05-10T07:41:25;5.18;;;4.03;;
24559;SDS011;12727;49.934;8.656;2023-05-10T07:43:52;6.40;;;4.65;;
24559;SDS011;12727;49.934;8.656;2023-05-10T07:46:17;6.30;;;4.45;;
24559;SDS011;12727;49.934;8.656;2023-05-10T07:48:44;5.07;;;4.55;;
24559;SDS011;12727;49.934;8.656;2023-05-10T07:51:10;8.48;;;4.68;;
24559;SDS011;12727;49.934;8.656;2023-05-10T07:53:36;6.65;;;4.90;;
24559;SDS011;12727;49.934;8.656;2023-05-10T07:56:20;5.38;;;4.47;;
24559;SDS011;12727;49.934;8.656;2023-05-10T07:58:45;6.00;;;4.25;;
24559;SDS011;12727;49.934;8.656;2023-05-10T08:01:11;5.43;;;4.30;;
24559;SDS011;12727;49.934;8.656;2023-05-10T08:03:36;5.57;;;4.97;;
24559;SDS011;12727;49.934;8.656;2023-05-10T08:06:02;8.57;;;5.28;;
24559;SDS011;12727;49.934;8.656;2023-05-10T08:08:28;4.95;;;3.72;;
24559;SDS011;12727;49.934;8.656;2023-05-10T08:10:53;5.65;;;3.70;;
24559;SDS011;12727;49.934;8.656;2023-05-10T08:13:19;7.18;;;5.43;;
24559;SDS011;12727;49.934;8.656;2023-05-10T08:15:44;5.95;;;4.68;;
24559;SDS011;12727;49.934;8.656;2023-05-10T08:18:10;4.70;;;3.15;;
24559;SDS011;12727;49.934;8.656;2023-05-10T08:20:35;6.03;;;3.70;;
24559;SDS011;12727;49.934;8.656;2023-05-10T08:23:01;3.92;;;3.03;;
24559;SDS011;12727;49.934;8.656;2023-05-10T08:25:26;4.30;;;2.30;;
24559;SDS011;12727;49.934;8.656;2023-05-10T08:27:52;3.22;;;1.90;;
24559;SDS011;12727;49.934;8.656;2023-05-10T08:30:17;3.42;;;2.53;;
24559;SDS011;12727;49.934;8.656;2023-05-10T08:32:43;3.08;;;2.78;;
24559;SDS011;12727;49.934;8.656;2023-05-10T08:35:08;4.72;;;2.75;;
24559;SDS011;12727;49.934;8.656;2023-05-10T08:37:34;3.67;;;2.38;;
24559;SDS011;12727;49.934;8.656;2023-05-10T08:40:00;2.47;;;2.28;;
24559;SDS011;12727;49.934;8.656;2023-05-10T08:42:25;7.88;;;3.00;;
24559;SDS011;12727;49.934;8.656;2023-05-10T08:44:55;4.32;;;2.70;;
24559;SDS011;12727;49.934;8.656;2023-05-10T08:47:22;3.22;;;2.55;;
24559;SDS011;12727;49.934;8.656;2023-05-10T08:49:48;3.08;;;2.38;;
24559;SDS011;12727;49.934;8.656;2023-05-10T08:52:16;4.85;;;2.60;;
24559;SDS011;12727;49.934;8.656;2023-05-10T08:54:42;3.13;;;2.80;;
24559;SDS011;12727;49.934;8.656;2023-05-10T08:57:09;5.20;;;3.72;;
24559;SDS011;12727;49.934;8.656;2023-05-10T08:59:35;5.80;;;3.40;;
24559;SDS011;12727;49.934;8.656;2023-05-10T09:02:04;4.45;;;3.85;;
24559;SDS011;12727;49.934;8.656;2023-05-10T09:04:31;4.32;;;3.47;;
24559;SDS011;12727;49.934;8.656;2023-05-10T09:06:56;6.22;;;3.38;;
24559;SDS011;12727;49.934;8.656;2023-05-10T09:09:22;4.22;;;3.60;;
24559;SDS011;12727;49.934;8.656;2023-05-10T09:11:49;4.35;;;3.72;;
24559;SDS011;12727;49.934;8.656;2023-05-10T09:14:15;5.93;;;3.17;;
24559;SDS011;12727;49.934;8.656;2023-05-10T09:16:42;4.47;;;2.72;;
24559;SDS011;12727;49.934;8.656;2023-05-10T09:19:07;4.75;;;3.50;;
24559;SDS011;12727;49.934;8.656;2023-05-10T09:21:35;7.22;;;3.38;;
24559;SDS011;12727;49.934;8.656;2023-05-10T09:24:05;3.28;;;2.40;;
24559;SDS011;12727;49.934;8.656;2023-05-10T09:26:31;3.30;;;1.40;;
24559;SDS011;12727;49.934;8.656;2023-05-10T09:28:58;2.58;;;1.13;;
24559;SDS011;12727;49.934;8.656;2023-05-10T09:31:25;7.43;;;2.63;;
24559;SDS011;12727;49.934;8.656;2023-05-10T09:34:29;2.08;;;1.42;;
24559;SDS011;12727;49.934;8.656;2023-05-10T09:36:57;2.25;;;1.40;;
24559;SDS011;12727;49.934;8.656;2023-05-10T09:39:35;2.03;;;1.40;;
24559;SDS011;12727;49.934;8.656;2023-05-10T09:42:03;2.55;;;1.13;;
24559;SDS011;12727;49.934;8.656;2023-05-10T09:44:33;2.55;;;1.30;;
24559;SDS011;12727;49.934;8.656;2023-05-10T09:47:03;2.80;;;1.30;;
24559;SDS011;12727;49.934;8.656;2023-05-10T09:49:29;1.67;;;1.27;;
24559;SDS011;12727;49.934;8.656;2023-05-10T09:52:00;1.80;;;1.13;;
24559;SDS011;12727;49.934;8.656;2023-05-10T09:54:26;2.45;;;1.92;;
24559;SDS011;12727;49.934;8.656;2023-05-10T09:56:51;3.47;;;2.15;;
24559;SDS011;12727;49.934;8.656;2023-05-10T09:59:17;4.40;;;2.08;;
24559;SDS011;12727;49.934;8.656;2023-05-10T10:01:48;1.92;;;1.50;;
24559;SDS011;12727;49.934;8.656;2023-05-10T10:04:32;2.15;;;1.60;;
24559;SDS011;12727;49.934;8.656;2023-05-10T10:07:05;1.55;;;1.15;;
24559;SDS011;12727;49.934;8.656;2023-05-10T10:09:30;1.67;;;1.25;;
24559;SDS011;12727;49.934;8.656;2023-05-10T10:11:57;2.25;;;1.00;;
24559;SDS011;12727;49.934;8.656;2023-05-10T10:14:23;0.90;;;0.60;;
24559;SDS011;12727;49.934;8.656;2023-05-10T10:16:49;2.03;;;1.05;;
24559;SDS011;12727;49.934;8.656;2023-05-10T10:19:18;1.33;;;0.88;;
24559;SDS011;12727;49.934;8.656;2023-05-10T10:21:44;0.60;;;0.60;;
24559;SDS011;12727;49.934;8.656;2023-05-10T10:24:10;1.63;;;0.85;;
24559;SDS011;12727;49.934;8.656;2023-05-10T10:26:36;2.60;;;0.77;;
24559;SDS011;12727;49.934;8.656;2023-05-10T10:29:21;1.23;;;0.80;;
24559;SDS011;12727;49.934;8.656;2023-05-10T10:34:31;1.20;;;0.60;;
24559;SDS011;12727;49.934;8.656;2023-05-10T10:36:57;2.53;;;0.65;;
24559;SDS011;12727;49.934;8.656;2023-05-10T10:39:28;1.13;;;0.65;;
24559;SDS011;12727;49.934;8.656;2023-05-10T10:41:55;0.90;;;0.80;;
24559;SDS011;12727;49.934;8.656;2023-05-10T10:49:49;1.15;;;0.70;;
24559;SDS011;12727;49.934;8.656;2023-05-10T10:52:33;1.42;;;0.60;;
24559;SDS011;12727;49.934;8.656;2023-05-10T10:55:00;4.53;;;0.98;;
24559;SDS011;12727;49.934;8.656;2023-05-10T11:00:17;1.40;;;0.90;;
24559;SDS011;12727;49.934;8.656;2023-05-10T11:02:46;1.33;;;0.88;;
24559;SDS011;12727;49.934;8.656;2023-05-10T11:05:35;2.55;;;1.10;;
24559;SDS011;12727;49.934;8.656;2023-05-10T11:08:10;1.55;;;0.90;;
24559;SDS011;12727;49.934;8.656;2023-05-10T11:10:37;2.05;;;0.57;;
24559;SDS011;12727;49.934;8.656;2023-05-10T11:13:04;2.42;;;1.23;;
24559;SDS011;12727;49.934;8.656;2023-05-10T11:15:35;1.48;;;0.88;;
24559;SDS011;12727;49.934;8.656;2023-05-10T11:18:23;1.80;;;0.80;;
24559;SDS011;12727;49.934;8.656;2023-05-10T11:20:50;2.45;;;0.93;;
24559;SDS011;12727;49.934;8.656;2023-05-10T11:23:17;1.02;;;0.95;;
24559;SDS011;12727;49.934;8.656;2023-05-10T11:25:47;1.42;;;1.00;;
24559;SDS011;12727;49.934;8.656;2023-05-10T11:28:13;2.67;;;1.30;;
24559;SDS011;12727;49.934;8.656;2023-05-10T11:30:43;2.58;;;1.00;;
24559;SDS011;12727;49.934;8.656;2023-05-10T11:33:09;1.13;;;0.90;;
24559;SDS011;12727;49.934;8.656;2023-05-10T11:35:40;2.17;;;0.88;;
24559;SDS011;12727;49.934;8.656;2023-05-10T11:38:07;2.47;;;0.80;;
24559;SDS011;12727;49.934;8.656;2023-05-10T11:40:33;1.67;;;1.05;;
24559;SDS011;12727;49.934;8.656;2023-05-10T11:43:00;2.00;;;0.82;;
24559;SDS011;12727;49.934;8.656;2023-05-10T11:45:26;0.60;;;0.50;;
24559;SDS011;12727;49.934;8.656;2023-05-10T11:47:53;0.70;;;0.60;;
24559;SDS011;12727;49.934;8.656;2023-05-10T11:50:18;1.73;;;0.68;;
24559;SDS011;12727;49.934;8.656;2023-05-10T11:52:44;3.35;;;0.80;;
24559;SDS011;12727;49.934;8.656;2023-05-10T11:55:09;0.98;;;0.50;;
24559;SDS011;12727;49.934;8.656;2023-05-10T11:57:35;1.02;;;0.40;;
24559;SDS011;12727;49.934;8.656;2023-05-10T12:00:03;2.50;;;0.73;;
24559;SDS011;12727;49.934;8.656;2023-05-10T12:02:30;0.93;;;0.70;;
24559;SDS011;12727;49.934;8.656;2023-05-10T12:04:56;0.80;;;0.47;;
24559;SDS011;12727;49.934;8.656;2023-05-10T12:07:21;0.73;;;0.40;;
24559;SDS011;12727;49.934;8.656;2023-05-10T12:10:29;1.15;;;0.50;;
24559;SDS011;12727;49.934;8.656;2023-05-10T12:12:46;0.73;;;0.50;;
24559;SDS011;12727;49.934;8.656;2023-05-10T12:15:21;1.10;;;0.55;;
24559;SDS011;12727;49.934;8.656;2023-05-10T12:20:18;2.45;;;0.45;;
24559;SDS011;12727;49.934;8.656;2023-05-10T12:22:49;15.68;;;2.05;;
24559;SDS011;12727;49.934;8.656;2023-05-10T12:25:17;18.17;;;1.77;;
24559;SDS011;12727;49.934;8.656;2023-05-10T12:27:53;2.15;;;0.60;;
24559;SDS011;12727;49.934;8.656;2023-05-10T12:30:21;2.35;;;0.50;;
24559;SDS011;12727;49.934;8.656;2023-05-10T12:32:50;0.93;;;0.30;;
24559;SDS011;12727;49.934;8.656;2023-05-10T12:35:17;1.48;;;0.40;;
24559;SDS011;12727;49.934;8.656;2023-05-10T12:37:45;1.17;;;0.30;;
24559;SDS011;12727;49.934;8.656;2023-05-10T12:40:11;0.38;;;0.30;;
24559;SDS011;12727;49.934;8.656;2023-05-10T12:42:37;1.85;;;0.43;;
24559;SDS011;12727;49.934;8.656;2023-05-10T12:45:04;0.70;;;0.50;;
24559;SDS011;12727;49.934;8.656;2023-05-10T12:47:33;0.68;;;0.43;;
24559;SDS011;12727;49.934;8.656;2023-05-10T12:49:59;1.02;;;0.30;;
24559;SDS011;12727;49.934;8.656;2023-05-10T12:52:26;2.10;;;0.50;;
24559;SDS011;12727;49.934;8.656;2023-05-10T12:54:53;1.35;;;0.40;;
24559;SDS011;12727;49.934;8.656;2023-05-10T12:57:19;0.85;;;0.38;;
24559;SDS011;12727;49.934;8.656;2023-05-10T12:59:45;0.82;;;0.43;;
24559;SDS011;12727;49.934;8.656;2023-05-10T13:02:11;0.43;;;0.20;;
24559;SDS011;12727;49.934;8.656;2023-05-10T13:04:37;0.93;;;0.30;;
24559;SDS011;12727;49.934;8.656;2023-05-10T13:07:05;1.15;;;0.40;;
24559;SDS011;12727;49.934;8.656;2023-05-10T13:09:31;0.70;;;0.40;;
24559;SDS011;12727;49.934;8.656;2023-05-10T13:11:56;2.22;;;0.30;;
24559;SDS011;12727;49.934;8.656;2023-05-10T13:14:22;1.38;;;0.43;;
24559;SDS011;12727;49.934;8.656;2023-05-10T13:16:47;1.17;;;0.38;;
24559;SDS011;12727;49.934;8.656;2023-05-10T13:19:13;3.05;;;0.50;;
24559;SDS011;12727;49.934;8.656;2023-05-10T13:21:39;1.10;;;0.50;;
24559;SDS011;12727;49.934;8.656;2023-05-10T13:24:06;2.38;;;0.60;;
24559;SDS011;12727;49.934;8.656;2023-05-10T13:26:32;2.22;;;0.60;;
24559;SDS011;12727;49.934;8.656;2023-05-10T13:28:58;0.95;;;0.40;;
24559;SDS011;12727;49.934;8.656;2023-05-10T13:31:23;2.80;;;0.50;;
24559;SDS011;12727;49.934;8.656;2023-05-10T13:33:49;1.48;;;0.60;;
24559;SDS011;12727;49.934;8.656;2023-05-10T13:36:15;2.25;;;0.52;;
24559;SDS011;12727;49.934;8.656;2023-05-10T13:38:40;1.98;;;0.45;;
24559;SDS011;12727;49.934;8.656;2023-05-10T13:41:06;3.03;;;0.52;;
24559;SDS011;12727;49.934;8.656;2023-05-10T13:43:31;1.92;;;0.63;;
24559;SDS011;12727;49.934;8.656;2023-05-10T13:45:57;2.65;;;0.75;;
24559;SDS011;12727;49.934;8.656;2023-05-10T13:48:23;1.30;;;0.50;;
24559;SDS011;12727;49.934;8.656;2023-05-10T13:50:48;1.27;;;0.50;;
24559;SDS011;12727;49.934;8.656;2023-05-10T13:53:14;1.20;;;0.55;;
24559;SDS011;12727;49.934;8.656;2023-05-10T13:55:41;0.75;;;0.50;;
24559;SDS011;12727;49.934;8.656;2023-05-10T13:58:06;0.75;;;0.50;;
24559;SDS011;12727;49.934;8.656;2023-05-10T14:00:32;2.25;;;0.90;;
24559;SDS011;12727;49.934;8.656;2023-05-10T14:02:57;3.35;;;0.90;;
24559;SDS011;12727;49.934;8.656;2023-05-10T14:05:23;2.15;;;0.75;;
24559;SDS011;12727;49.934;8.656;2023-05-10T14:07:49;1.40;;;0.55;;
24559;SDS011;12727;49.934;8.656;2023-05-10T14:10:15;4.60;;;0.60;;
24559;SDS011;12727;49.934;8.656;2023-05-10T14:12:41;2.67;;;0.60;;
24559;SDS011;12727;49.934;8.656;2023-05-10T14:15:06;2.63;;;0.65;;
24559;SDS011;12727;49.934;8.656;2023-05-10T14:17:33;3.05;;;0.65;;
24559;SDS011;12727;49.934;8.656;2023-05-10T14:19:58;2.00;;;0.40;;
24559;SDS011;12727;49.934;8.656;2023-05-10T14:22:24;1.80;;;0.80;;
24559;SDS011;12727;49.934;8.656;2023-05-10T14:24:49;2.05;;;0.70;;
24559;SDS011;12727;49.934;8.656;2023-05-10T14:27:15;2.75;;;0.57;;
24559;SDS011;12727;49.934;8.656;2023-05-10T14:29:41;1.13;;;0.63;;
24559;SDS011;12727;49.934;8.656;2023-05-10T14:32:07;2.45;;;0.60;;
24559;SDS011;12727;49.934;8.656;2023-05-10T14:34:33;1.55;;;0.73;;
24559;SDS011;12727;49.934;8.656;2023-05-10T14:36:58;4.00;;;0.63;;
24559;SDS011;12727;49.934;8.656;2023-05-10T14:39:24;1.95;;;0.70;;
24559;SDS011;12727;49.934;8.656;2023-05-10T14:41:50;2.55;;;0.80;;
24559;SDS011;12727;49.934;8.656;2023-05-10T14:44:17;2.58;;;0.80;;
24559;SDS011;12727;49.934;8.656;2023-05-10T14:46:42;1.40;;;0.60;;
24559;SDS011;12727;49.934;8.656;2023-05-10T14:49:08;1.58;;;0.50;;
24559;SDS011;12727;49.934;8.656;2023-05-10T14:51:33;1.98;;;0.60;;
24559;SDS011;12727;49.934;8.656;2023-05-10T14:53:59;2.28;;;0.70;;
24559;SDS011;12727;49.934;8.656;2023-05-10T14:56:25;1.95;;;0.73;;
24559;SDS011;12727;49.934;8.656;2023-05-10T14:58:51;1.23;;;0.70;;
24559;SDS011;12727;49.934;8.656;2023-05-10T15:01:16;1.90;;;0.70;;
24559;SDS011;12727;49.934;8.656;2023-05-10T15:03:42;1.60;;;0.60;;
24559;SDS011;12727;49.934;8.656;2023-05-10T15:06:08;2.63;;;0.90;;
24559;SDS011;12727;49.934;8.656;2023-05-10T15:08:33;2.28;;;0.82;;
24559;SDS011;12727;49.934;8.656;2023-05-10T15:10:59;1.73;;;0.82;;
24559;SDS011;12727;49.934;8.656;2023-05-10T15:13:25;3.67;;;0.90;;
24559;SDS011;12727;49.934;8.656;2023-05-10T15:15:51;4.13;;;0.70;;
24559;SDS011;12727;49.934;8.656;2023-05-10T15:18:17;2.33;;;0.60;;